Time;durP1;ratioP1;P1;durP2;ratioP2;P2;SDS_P1;SDS_P2;PMS_P1;PMS_P2;Temp;Humidity;BMP_temperature;BMP_pressure;BME280_temperature;BME280_humidity;BME280_pressure;Samples;Min_cycle;Max_cycle;Signal;HPM_P1;HPM_P2
2023/09/09 00:00:57;;;;;;;5.38;4.03;;;19.00;59.90;;;;;;5037792;28;20080;-51
2023/09/09 00:03:23;;;;;;;4.85;3.72;;;19.10;60.10;;;;;;5037618;28;20033;-50
2023/09/09 00:05:49;;;;;;;6.70;3.80;;;19.00;60.00;;;;;;5037485;28;20052;-51
2023/09/09 00:08:21;;;;;;;5.65;4.18;;;19.00;60.00;;;;;;5036112;28;20477;-51
2023/09/09 00:10:47;;;;;;;5.20;3.88;;;19.10;60.20;;;;;;5037550;28;20492;-49
2023/09/09 00:13:13;;;;;;;10.73;4.10;;;19.10;60.00;;;;;;5037450;28;20021;-51
2023/09/09 00:15:39;;;;;;;6.82;4.25;;;19.00;59.80;;;;;;5037233;28;20017;-49
2023/09/09 00:18:04;;;;;;;5.68;3.90;;;19.00;59.70;;;;;;5036828;28;20026;-50
2023/09/09 00:20:33;;;;;;;5.57;3.83;;;19.00;59.70;;;;;;5019052;28;20049;-50
2023/09/09 00:23:03;;;;;;;6.30;4.25;;;19.00;59.60;;;;;;5037204;28;20030;-49
2023/09/09 00:25:29;;;;;;;8.20;4.35;;;19.00;59.70;;;;;;5037330;28;20061;-50
2023/09/09 00:27:55;;;;;;;7.68;4.90;;;19.00;59.80;;;;;;5036923;28;20076;-50
2023/09/09 00:30:20;;;;;;;7.53;4.57;;;18.90;59.60;;;;;;5036749;28;20649;-53
2023/09/09 00:32:46;;;;;;;7.93;4.80;;;18.90;59.70;;;;;;5036607;28;20041;-51
2023/09/09 00:35:12;;;;;;;9.30;5.18;;;18.90;59.70;;;;;;5037191;28;20029;-51
2023/09/09 00:37:37;;;;;;;7.35;4.45;;;18.90;59.70;;;;;;5036679;28;20434;-51
2023/09/09 00:40:04;;;;;;;6.70;4.85;;;18.90;59.80;;;;;;5036736;28;20088;-51
2023/09/09 00:42:30;;;;;;;6.25;4.38;;;18.90;59.80;;;;;;5036647;28;20093;-47
2023/09/09 00:44:55;;;;;;;5.80;4.10;;;18.80;59.80;;;;;;5036599;28;20092;-52
2023/09/09 00:47:21;;;;;;;6.32;4.25;;;18.80;59.90;;;;;;5035622;28;20040;-50
2023/09/09 00:49:47;;;;;;;5.97;4.10;;;18.80;59.90;;;;;;5035004;28;20504;-51
2023/09/09 00:52:12;;;;;;;7.45;4.90;;;18.80;60.00;;;;;;5036470;28;20036;-50
2023/09/09 00:54:38;;;;;;;7.43;4.53;;;18.70;60.00;;;;;;5035943;28;20085;-51
2023/09/09 00:57:04;;;;;;;7.57;4.55;;;18.70;60.20;;;;;;5036400;28;20092;-51
2023/09/09 00:59:30;;;;;;;7.65;4.43;;;18.70;60.30;;;;;;5036177;28;20508;-51
2023/09/09 01:01:59;;;;;;;7.13;4.57;;;18.70;60.30;;;;;;5036882;28;20029;-51
2023/09/09 01:04:25;;;;;;;7.35;4.22;;;18.70;60.50;;;;;;5036165;28;20042;-51
2023/09/09 01:06:52;;;;;;;9.52;4.63;;;18.60;60.50;;;;;;5035588;28;20038;-50
2023/09/09 01:09:18;;;;;;;6.43;4.13;;;18.60;60.70;;;;;;5035631;28;20022;-52
2023/09/09 01:11:43;;;;;;;6.88;4.40;;;18.60;60.90;;;;;;5035934;28;20055;-51
2023/09/09 01:14:09;;;;;;;6.18;4.50;;;18.50;61.50;;;;;;5035580;28;20424;-51
2023/09/09 01:16:35;;;;;;;7.15;4.28;;;18.50;62.20;;;;;;5035709;28;20033;-51
2023/09/09 01:19:01;;;;;;;6.75;4.90;;;18.50;63.00;;;;;;5035854;28;20036;-51
2023/09/09 01:21:29;;;;;;;7.05;4.50;;;18.50;63.30;;;;;;5035992;28;20485;-52
2023/09/09 01:23:54;;;;;;;7.82;4.82;;;18.50;63.70;;;;;;5035210;28;20036;-49
2023/09/09 01:26:20;;;;;;;6.90;4.70;;;18.50;64.00;;;;;;5035245;28;20482;-49
2023/09/09 01:28:46;;;;;;;6.65;4.65;;;18.40;63.80;;;;;;5035471;28;20452;-51
2023/09/09 01:31:12;;;;;;;7.60;4.65;;;18.40;63.90;;;;;;5035477;28;20030;-50
2023/09/09 01:33:38;;;;;;;6.03;4.70;;;18.40;63.90;;;;;;5035638;28;20032;-50
2023/09/09 01:36:04;;;;;;;7.03;4.65;;;18.40;64.10;;;;;;5017892;28;20108;-52
2023/09/09 01:38:34;;;;;;;7.53;5.20;;;18.40;64.50;;;;;;5035050;28;20478;-49
2023/09/09 01:41:00;;;;;;;6.22;4.80;;;18.30;64.70;;;;;;5035306;28;20032;-48
2023/09/09 01:43:25;;;;;;;8.23;5.38;;;18.30;65.00;;;;;;5035284;28;20030;-51
2023/09/09 01:45:51;;;;;;;8.00;5.60;;;18.30;65.40;;;;;;5034898;28;20072;-49
2023/09/09 01:48:17;;;;;;;8.85;4.53;;;18.30;66.00;;;;;;5035331;28;20485;-52
2023/09/09 01:50:44;;;;;;;6.95;4.63;;;18.30;66.90;;;;;;5035193;28;20384;-51
2023/09/09 01:53:10;;;;;;;8.23;4.93;;;18.30;67.50;;;;;;5035081;28;20057;-51
2023/09/09 01:55:35;;;;;;;6.47;4.65;;;18.30;67.70;;;;;;5035572;28;20061;-50
2023/09/09 01:58:01;;;;;;;6.80;4.60;;;18.30;67.40;;;;;;5035146;28;20091;-50
2023/09/09 02:00:27;;;;;;;7.53;4.70;;;18.20;67.00;;;;;;5034719;28;20076;-49
2023/09/09 02:02:54;;;;;;;7.78;5.30;;;18.20;66.80;;;;;;5034829;28;20480;-47
2023/09/09 02:05:20;;;;;;;8.30;4.85;;;18.20;66.50;;;;;;5034542;28;20156;-52
2023/09/09 02:07:46;;;;;;;6.68;4.97;;;18.20;66.40;;;;;;5034468;28;20495;-51
2023/09/09 02:10:11;;;;;;;6.95;4.97;;;18.20;66.20;;;;;;5034660;28;20044;-51
2023/09/09 02:12:37;;;;;;;6.28;4.80;;;18.10;66.10;;;;;;5034547;28;20552;-51
2023/09/09 02:15:03;;;;;;;8.13;5.07;;;18.10;66.10;;;;;;5034260;28;20025;-51
2023/09/09 02:17:29;;;;;;;7.68;4.80;;;18.00;66.20;;;;;;5034651;28;20060;-50
2023/09/09 02:19:55;;;;;;;8.27;5.35;;;18.00;66.50;;;;;;5034660;28;20029;-52
2023/09/09 02:22:21;;;;;;;8.52;5.20;;;18.00;66.70;;;;;;5034175;28;20043;-50
2023/09/09 02:24:48;;;;;;;7.93;4.70;;;18.00;67.10;;;;;;5034407;28;20489;-51
2023/09/09 02:27:13;;;;;;;6.82;5.00;;;17.90;67.50;;;;;;5033893;28;20108;-51
2023/09/09 02:29:39;;;;;;;5.88;4.80;;;17.90;67.60;;;;;;5034223;28;20061;-52
2023/09/09 02:32:05;;;;;;;8.10;5.07;;;17.90;67.80;;;;;;5034436;28;20077;-51
2023/09/09 02:34:30;;;;;;;7.32;4.88;;;17.90;68.10;;;;;;5033740;28;20034;-52
2023/09/09 02:37:16;;;;;;;8.35;4.82;;;17.90;68.30;;;;;;5033372;28;20040;-51
2023/09/09 02:39:43;;;;;;;6.15;4.65;;;18.00;68.40;;;;;;5034186;28;20088;-48
2023/09/09 02:42:17;;;;;;;8.25;5.22;;;18.00;68.60;;;;;;5033991;28;20057;-50
2023/09/09 02:44:43;;;;;;;6.43;4.70;;;18.00;68.50;;;;;;5034082;28;20048;-48
2023/09/09 02:47:12;;;;;;;8.60;4.90;;;17.90;68.60;;;;;;5034766;28;20022;-51
2023/09/09 02:49:38;;;;;;;5.70;4.28;;;17.90;68.60;;;;;;5033888;28;20084;-51
2023/09/09 02:52:04;;;;;;;6.28;4.55;;;17.90;68.50;;;;;;5033830;28;20040;-50
2023/09/09 02:54:30;;;;;;;9.52;4.95;;;17.90;68.30;;;;;;5033844;28;20049;-49
2023/09/09 02:56:56;;;;;;;6.95;5.15;;;17.90;68.10;;;;;;5033877;28;20022;-49
2023/09/09 02:59:23;;;;;;;5.97;4.30;;;17.90;68.10;;;;;;5034383;28;20444;-51
2023/09/09 03:01:48;;;;;;;7.80;4.88;;;17.90;68.20;;;;;;5034551;28;20033;-48
2023/09/09 03:04:14;;;;;;;8.45;4.80;;;17.90;68.30;;;;;;5033921;28;20037;-51
2023/09/09 03:06:39;;;;;;;10.05;5.22;;;17.90;68.40;;;;;;5033887;28;20065;-48
2023/09/09 03:09:06;;;;;;;7.82;4.97;;;17.80;68.60;;;;;;5033743;28;20033;-49
2023/09/09 03:11:32;;;;;;;8.63;5.38;;;17.80;68.90;;;;;;5032819;28;20125;-51
2023/09/09 03:13:58;;;;;;;9.55;5.30;;;17.80;68.90;;;;;;5033560;28;20021;-49
2023/09/09 03:16:24;;;;;;;6.88;4.60;;;17.80;69.00;;;;;;5033753;28;20481;-49
2023/09/09 03:18:50;;;;;;;7.47;5.18;;;17.80;69.00;;;;;;5033563;28;20029;-51
2023/09/09 03:21:16;;;;;;;7.47;5.20;;;17.80;69.10;;;;;;5033457;28;20036;-51
2023/09/09 03:23:42;;;;;;;8.38;5.18;;;17.70;69.20;;;;;;5033759;28;20488;-52
2023/09/09 03:26:09;;;;;;;8.73;5.07;;;17.70;69.50;;;;;;5033271;28;20037;-50
2023/09/09 03:28:35;;;;;;;8.07;4.63;;;17.70;69.70;;;;;;5033685;28;20076;-51
2023/09/09 03:31:01;;;;;;;6.57;4.70;;;17.70;69.90;;;;;;5033632;28;20025;-52
2023/09/09 03:33:27;;;;;;;7.30;5.22;;;17.70;70.00;;;;;;5033606;28;20096;-51
2023/09/09 03:35:53;;;;;;;7.32;4.75;;;17.80;70.00;;;;;;5033775;28;20022;-49
2023/09/09 03:38:19;;;;;;;7.35;4.97;;;17.70;69.90;;;;;;5033529;28;20104;-51
2023/09/09 03:40:45;;;;;;;7.20;5.25;;;17.80;70.00;;;;;;5034013;28;20116;-51
2023/09/09 03:43:12;;;;;;;8.07;4.50;;;17.80;70.00;;;;;;5033129;28;20029;-50
2023/09/09 03:45:38;;;;;;;6.00;4.22;;;17.80;69.80;;;;;;5033715;28;20057;-48
2023/09/09 03:48:04;;;;;;;5.97;4.25;;;17.80;69.60;;;;;;5033354;28;20064;-51
2023/09/09 03:50:30;;;;;;;6.93;4.30;;;17.80;69.50;;;;;;5033672;28;20025;-50
2023/09/09 03:52:56;;;;;;;8.05;4.30;;;17.80;69.50;;;;;;5033717;28;20054;-51
2023/09/09 03:55:22;;;;;;;6.40;4.32;;;17.90;69.60;;;;;;5032900;28;20042;-51
2023/09/09 03:57:47;;;;;;;6.30;4.40;;;17.90;69.20;;;;;;5033316;28;20032;-52
2023/09/09 04:00:13;;;;;;;6.85;4.15;;;17.90;69.10;;;;;;5033574;28;20029;-51
2023/09/09 04:02:39;;;;;;;8.30;4.75;;;17.90;68.90;;;;;;5033369;28;20039;-51
2023/09/09 04:05:07;;;;;;;7.80;4.68;;;18.00;68.90;;;;;;5033659;28;20033;-47
2023/09/09 04:07:35;;;;;;;9.85;4.70;;;18.00;68.90;;;;;;5033411;28;20096;-51
2023/09/09 04:10:02;;;;;;;7.22;4.43;;;18.00;68.90;;;;;;5033202;28;20523;-50
2023/09/09 04:12:27;;;;;;;8.23;4.70;;;18.10;68.90;;;;;;5033199;28;20358;-50
2023/09/09 04:14:53;;;;;;;5.75;4.53;;;18.10;68.70;;;;;;5033201;28;20032;-51
2023/09/09 04:17:19;;;;;;;6.43;4.90;;;18.10;68.70;;;;;;5033112;28;20105;-48
2023/09/09 04:19:44;;;;;;;9.23;4.85;;;18.20;68.70;;;;;;5032746;28;20025;-50
2023/09/09 04:22:10;;;;;;;8.05;4.75;;;18.20;68.50;;;;;;5033612;28;20037;-48
2023/09/09 04:24:36;;;;;;;6.72;4.75;;;18.20;68.50;;;;;;5036472;28;20033;-50
2023/09/09 04:27:02;;;;;;;6.85;4.97;;;18.20;68.10;;;;;;5036744;28;20389;-49
2023/09/09 04:29:28;;;;;;;8.38;5.43;;;18.20;67.90;;;;;;5036843;28;20030;-51
2023/09/09 04:31:54;;;;;;;6.57;4.40;;;18.20;67.80;;;;;;5036546;28;20068;-49
2023/09/09 04:34:19;;;;;;;7.95;5.28;;;18.20;67.70;;;;;;5036917;28;20036;-48
2023/09/09 04:36:45;;;;;;;8.18;4.45;;;18.20;67.60;;;;;;5036478;28;20022;-52
2023/09/09 04:39:13;;;;;;;7.10;4.63;;;18.20;67.70;;;;;;5036583;28;20083;-52
2023/09/09 04:41:39;;;;;;;9.48;5.03;;;18.20;67.40;;;;;;5036032;28;20034;-50
2023/09/09 04:44:05;;;;;;;7.53;4.93;;;18.20;67.40;;;;;;5033993;28;20393;-51
2023/09/09 04:46:31;;;;;;;7.05;4.60;;;18.10;67.70;;;;;;5034778;28;20033;-51
2023/09/09 04:48:57;;;;;;;6.32;4.50;;;18.20;67.50;;;;;;5034624;28;20156;-50
2023/09/09 04:51:22;;;;;;;7.57;4.90;;;18.30;67.80;;;;;;5034736;28;20469;-51
2023/09/09 04:53:49;;;;;;;6.82;4.43;;;18.30;67.70;;;;;;5033906;28;20100;-52
2023/09/09 04:56:14;;;;;;;6.75;4.30;;;18.30;67.90;;;;;;5034020;28;20021;-50
2023/09/09 04:58:40;;;;;;;8.90;4.53;;;18.40;67.80;;;;;;5036067;28;20082;-51
2023/09/09 05:01:06;;;;;;;7.22;4.70;;;18.50;67.70;;;;;;5034015;28;20100;-49
2023/09/09 05:03:31;;;;;;;5.97;4.55;;;18.50;67.50;;;;;;5034933;28;20044;-51
2023/09/09 05:05:57;;;;;;;7.78;5.03;;;18.60;67.30;;;;;;5035058;28;20029;-51
2023/09/09 05:08:23;;;;;;;6.82;3.95;;;18.60;67.40;;;;;;5034229;28;20029;-50
2023/09/09 05:10:48;;;;;;;7.43;4.38;;;18.70;67.20;;;;;;5034772;28;20032;-51
2023/09/09 05:13:14;;;;;;;6.13;4.35;;;18.80;67.10;;;;;;5035041;28;20026;-49
2023/09/09 05:15:40;;;;;;;7.88;4.60;;;18.90;67.00;;;;;;5035712;28;20097;-52
2023/09/09 05:18:05;;;;;;;8.10;4.57;;;18.90;66.50;;;;;;5035923;28;20481;-51
2023/09/09 05:20:31;;;;;;;8.65;4.90;;;19.00;66.50;;;;;;5035601;28;20034;-50
2023/09/09 05:22:56;;;;;;;5.38;3.80;;;19.00;66.50;;;;;;5035888;28;20037;-51
2023/09/09 05:25:22;;;;;;;8.32;4.43;;;19.00;66.10;;;;;;5036190;28;20028;-50
2023/09/09 05:27:48;;;;;;;5.57;3.97;;;19.10;66.00;;;;;;5036082;28;20033;-51
2023/09/09 05:30:14;;;;;;;6.13;4.53;;;19.10;66.10;;;;;;5036393;28;20497;-52
2023/09/09 05:32:40;;;;;;;5.68;4.32;;;19.20;66.10;;;;;;5035826;28;20104;-50
2023/09/09 05:35:06;;;;;;;5.57;4.00;;;19.20;65.90;;;;;;5034799;28;20076;-48
2023/09/09 05:37:32;;;;;;;5.43;4.13;;;19.30;65.90;;;;;;5035895;28;20104;-51
2023/09/09 05:39:58;;;;;;;7.00;3.92;;;19.40;65.70;;;;;;5036362;28;20112;-52
2023/09/09 05:42:23;;;;;;;6.10;4.15;;;19.40;65.60;;;;;;5035620;28;20164;-51
2023/09/09 05:44:49;;;;;;;6.45;4.30;;;19.40;65.60;;;;;;5035541;28;20025;-49
2023/09/09 05:47:15;;;;;;;5.28;4.10;;;19.50;65.70;;;;;;5035211;28;20026;-51
2023/09/09 05:49:40;;;;;;;7.03;4.30;;;19.40;65.80;;;;;;5034883;28;20030;-53
2023/09/09 05:52:07;;;;;;;6.07;3.95;;;19.40;65.80;;;;;;5033739;28;20040;-51
2023/09/09 05:54:32;;;;;;;6.85;4.40;;;19.40;66.10;;;;;;5033750;28;20064;-52
2023/09/09 05:56:58;;;;;;;6.97;4.07;;;19.40;66.10;;;;;;5034159;28;20033;-48
2023/09/09 05:59:24;;;;;;;6.10;4.07;;;19.40;66.10;;;;;;5034209;28;20056;-50
2023/09/09 06:01:50;;;;;;;6.38;4.28;;;19.40;66.10;;;;;;5034946;28;20029;-50
2023/09/09 06:04:16;;;;;;;6.55;4.63;;;19.40;66.60;;;;;;5035236;28;20591;-50
2023/09/09 06:06:45;;;;;;;6.70;4.57;;;19.40;66.60;;;;;;5034758;28;20025;-51
2023/09/09 06:09:11;;;;;;;8.50;4.35;;;19.50;66.80;;;;;;5033700;28;20032;-51
2023/09/09 06:11:36;;;;;;;4.97;3.65;;;19.50;66.90;;;;;;5033618;28;20021;-51
2023/09/09 06:14:02;;;;;;;5.55;4.00;;;19.50;67.10;;;;;;5033374;28;20028;-51
2023/09/09 06:16:28;;;;;;;6.75;3.88;;;19.60;68.00;;;;;;5034476;28;20026;-51
2023/09/09 06:18:53;;;;;;;5.20;3.80;;;19.60;67.00;;;;;;5032689;28;20040;-51
2023/09/09 06:21:20;;;;;;;4.95;3.63;;;19.60;67.00;;;;;;5031735;28;20037;-51
2023/09/09 06:23:46;;;;;;;6.63;3.88;;;19.70;67.00;;;;;;5034077;28;20108;-50
2023/09/09 06:26:12;;;;;;;8.70;3.67;;;19.70;67.00;;;;;;5032567;28;20497;-52
2023/09/09 06:28:37;;;;;;;5.45;3.08;;;19.80;67.10;;;;;;5031745;28;20025;-51
2023/09/09 06:31:03;;;;;;;5.90;3.28;;;19.80;66.10;;;;;;5033123;28;20397;-51
2023/09/09 06:33:29;;;;;;;5.78;3.63;;;19.90;65.80;;;;;;5034040;28;20037;-51
2023/09/09 06:35:55;;;;;;;5.85;2.97;;;19.90;65.60;;;;;;5034174;28;20032;-51
2023/09/09 06:38:21;;;;;;;5.50;3.30;;;20.00;65.20;;;;;;5034865;28;20037;-48
2023/09/09 06:40:47;;;;;;;10.02;3.38;;;20.00;64.90;;;;;;5034577;28;20381;-51
2023/09/09 06:43:16;;;;;;;4.65;2.97;;;20.00;64.50;;;;;;5034742;28;20033;-50
2023/09/09 06:45:41;;;;;;;6.18;3.30;;;20.00;64.30;;;;;;5035046;28;20104;-52
2023/09/09 06:48:07;;;;;;;6.95;3.33;;;20.10;63.90;;;;;;5034382;28;20426;-52
2023/09/09 06:50:33;;;;;;;6.30;2.97;;;20.10;63.80;;;;;;5034793;28;20028;-50
2023/09/09 06:52:59;;;;;;;5.43;2.83;;;20.10;63.40;;;;;;5034707;28;20129;-50
2023/09/09 06:55:24;;;;;;;7.45;3.08;;;20.10;63.50;;;;;;5033625;28;20056;-50
2023/09/09 06:57:50;;;;;;;6.72;3.17;;;20.10;63.60;;;;;;5033174;28;20065;-53
2023/09/09 07:00:16;;;;;;;3.53;2.72;;;20.10;63.60;;;;;;5032008;28;20083;-51
2023/09/09 07:02:42;;;;;;;5.22;3.08;;;20.10;63.20;;;;;;5032922;28;20036;-51
2023/09/09 07:05:08;;;;;;;5.78;3.30;;;20.10;63.00;;;;;;5034419;28;20072;-50
2023/09/09 07:07:33;;;;;;;6.32;2.97;;;20.10;62.90;;;;;;5033450;28;20473;-51
2023/09/09 07:09:59;;;;;;;3.75;3.03;;;20.10;63.00;;;;;;5033466;28;20032;-49
2023/09/09 07:12:25;;;;;;;6.22;3.00;;;20.10;63.00;;;;;;5032289;28;20032;-52
2023/09/09 07:14:51;;;;;;;5.25;3.00;;;20.10;62.70;;;;;;5032582;28;20503;-52
2023/09/09 07:17:17;;;;;;;2.67;2.47;;;20.10;62.30;;;;;;5032770;28;20060;-51
2023/09/09 07:19:42;;;;;;;3.63;2.50;;;20.10;62.30;;;;;;5032999;28;20053;-52
2023/09/09 07:22:08;;;;;;;6.22;2.75;;;20.10;62.50;;;;;;5033769;28;20049;-51
2023/09/09 07:24:34;;;;;;;4.55;2.63;;;20.10;62.30;;;;;;5033169;28;20104;-50
2023/09/09 07:27:03;;;;;;;3.65;2.80;;;20.20;62.30;;;;;;5033136;28;20440;-48
2023/09/09 07:29:29;;;;;;;4.82;2.55;;;20.20;62.30;;;;;;5032725;28;20303;-52
2023/09/09 07:31:55;;;;;;;5.32;2.75;;;20.20;62.40;;;;;;5031210;28;20056;-50
2023/09/09 07:34:20;;;;;;;3.67;2.70;;;20.20;62.60;;;;;;5033175;28;20026;-52
2023/09/09 07:36:47;;;;;;;2.70;2.35;;;20.20;62.50;;;;;;5032355;28;20039;-51
2023/09/09 07:39:14;;;;;;;5.43;3.28;;;20.30;62.60;;;;;;5031735;28;20040;-51
2023/09/09 07:41:39;;;;;;;4.65;2.70;;;20.30;62.80;;;;;;5031838;28;20389;-51
2023/09/09 07:44:06;;;;;;;6.43;2.75;;;20.30;62.60;;;;;;5032468;28;20022;-53
2023/09/09 07:46:32;;;;;;;3.45;2.85;;;20.30;61.80;;;;;;5032913;28;20382;-51
2023/09/09 07:48:57;;;;;;;5.18;2.78;;;20.30;61.80;;;;;;5032179;28;20026;-52
2023/09/09 07:51:23;;;;;;;3.67;2.45;;;20.40;61.60;;;;;;5032474;28;20044;-51
2023/09/09 07:53:49;;;;;;;3.15;2.35;;;20.40;61.90;;;;;;5033084;28;20073;-51
2023/09/09 07:56:14;;;;;;;2.85;2.28;;;20.40;61.80;;;;;;5032874;28;20500;-51
2023/09/09 07:58:40;;;;;;;4.30;2.53;;;20.40;61.60;;;;;;5035266;28;20072;-51
2023/09/09 08:01:08;;;;;;;4.13;2.50;;;20.40;61.10;;;;;;5037940;28;20022;-51
2023/09/09 08:03:34;;;;;;;3.65;2.58;;;20.40;61.00;;;;;;5037796;28;20025;-50
2023/09/09 08:06:06;;;;;;;4.05;2.33;;;20.40;60.90;;;;;;5037224;28;20029;-52
2023/09/09 08:08:32;;;;;;;3.00;2.20;;;20.40;60.90;;;;;;5037353;28;20397;-48
2023/09/09 08:10:58;;;;;;;3.83;2.28;;;20.40;61.10;;;;;;5036947;28;20021;-48
2023/09/09 08:13:27;;;;;;;3.58;2.75;;;20.40;60.40;;;;;;5036001;28;20017;-51
2023/09/09 08:15:52;;;;;;;3.13;2.47;;;20.40;60.40;;;;;;5036048;28;20025;-51
2023/09/09 08:18:18;;;;;;;4.32;2.30;;;20.50;60.30;;;;;;5035603;28;20168;-51
2023/09/09 08:20:44;;;;;;;2.50;2.00;;;20.40;59.70;;;;;;5036212;28;20116;-49
2023/09/09 08:23:10;;;;;;;3.92;2.58;;;20.50;59.90;;;;;;5035991;28;20034;-52
2023/09/09 08:25:35;;;;;;;3.65;2.38;;;20.50;59.80;;;;;;5036527;28;20030;-51
2023/09/09 08:28:03;;;;;;;3.83;2.35;;;20.50;59.60;;;;;;5035633;28;20477;-53
2023/09/09 08:30:29;;;;;;;2.55;2.20;;;20.50;59.70;;;;;;5035466;28;20148;-52
2023/09/09 08:32:55;;;;;;;4.20;2.47;;;20.50;59.10;;;;;;5035297;28;20040;-51
2023/09/09 08:35:22;;;;;;;3.05;2.50;;;20.50;58.50;;;;;;5036003;28;20045;-52
2023/09/09 08:37:48;;;;;;;3.83;2.05;;;20.50;58.90;;;;;;5035737;28;20519;-52
2023/09/09 08:40:14;;;;;;;3.88;2.40;;;20.50;58.50;;;;;;5036888;28;20025;-52
2023/09/09 08:42:56;;;;;;;6.45;2.30;;;20.60;58.20;;;;;;5036560;28;20064;-52
2023/09/09 08:45:41;;;;;;;4.13;2.25;;;20.60;58.20;;;;;;5036947;28;20056;-51
2023/09/09 08:48:09;;;;;;;2.05;1.80;;;20.60;57.80;;;;;;5018310;28;20480;-51
2023/09/09 08:50:38;;;;;;;4.10;2.10;;;20.60;57.40;;;;;;5021828;28;20026;-48
2023/09/09 08:53:06;;;;;;;3.17;2.20;;;20.70;56.70;;;;;;5016322;28;20492;-51
2023/09/09 08:55:32;;;;;;;3.90;2.50;;;20.70;57.30;;;;;;5016127;28;20393;-52
2023/09/09 08:57:58;;;;;;;3.38;1.92;;;20.70;57.60;;;;;;5013246;28;20505;-50
2023/09/09 09:00:35;;;;;;;1.75;1.58;;;20.80;57.20;;;;;;5014906;28;20148;-50
2023/09/09 09:03:01;;;;;;;2.40;1.73;;;20.80;56.70;;;;;;5014635;28;20058;-50
2023/09/09 09:05:32;;;;;;;3.28;1.75;;;20.70;57.00;;;;;;5013802;28;20030;-53
2023/09/09 09:07:58;;;;;;;3.03;1.97;;;20.80;57.30;;;;;;5014135;28;20409;-51
2023/09/09 09:10:24;;;;;;;4.20;1.73;;;20.80;57.00;;;;;;5013353;28;20037;-52
2023/09/09 09:12:49;;;;;;;4.40;2.22;;;20.80;56.90;;;;;;5013157;28;20036;-47
2023/09/09 09:15:16;;;;;;;3.13;1.75;;;20.80;56.70;;;;;;5014179;28;20030;-50
2023/09/09 09:17:42;;;;;;;1.77;1.55;;;20.80;56.20;;;;;;5013669;28;20045;-50
2023/09/09 09:20:25;;;;;;;3.47;2.00;;;20.80;56.70;;;;;;5013725;28;20054;-51
2023/09/09 09:22:51;;;;;;;3.38;1.90;;;20.80;56.70;;;;;;5014200;28;20030;-51
2023/09/09 09:25:23;;;;;;;2.83;2.15;;;20.80;56.90;;;;;;5015215;28;20411;-50
2023/09/09 09:27:49;;;;;;;2.90;1.92;;;20.80;56.40;;;;;;5015905;28;20042;-50
2023/09/09 09:30:14;;;;;;;2.53;1.77;;;20.80;56.60;;;;;;5015743;28;20026;-50
2023/09/09 09:32:41;;;;;;;2.72;2.03;;;20.80;56.80;;;;;;5015877;28;20080;-53
2023/09/09 09:35:23;;;;;;;2.63;1.73;;;20.80;56.60;;;;;;5015287;28;20055;-50
2023/09/09 09:38:00;;;;;;;3.63;2.10;;;20.80;56.60;;;;;;5015450;28;20478;-50
2023/09/09 09:40:27;;;;;;;5.97;2.10;;;20.80;56.70;;;;;;5015920;28;20029;-48
2023/09/09 09:42:54;;;;;;;1.85;1.73;;;20.90;56.30;;;;;;5015468;28;20084;-52
2023/09/09 09:45:28;;;;;;;2.25;1.77;;;20.90;56.70;;;;;;5015297;28;20061;-48
2023/09/09 09:47:54;;;;;;;4.95;2.20;;;20.90;56.20;;;;;;5015484;28;20028;-48
2023/09/09 09:50:22;;;;;;;3.03;1.70;;;21.00;56.30;;;;;;5014987;28;20521;-51
2023/09/09 09:53:02;;;;;;;1.92;1.73;;;21.00;56.00;;;;;;5015087;28;20443;-51
2023/09/09 09:55:29;;;;;;;1.95;1.65;;;21.00;55.60;;;;;;5013940;28;20502;-50
2023/09/09 09:57:57;;;;;;;2.00;1.63;;;21.00;55.60;;;;;;5014881;28;20025;-50
2023/09/09 10:00:24;;;;;;;3.75;1.88;;;21.00;55.80;;;;;;5007337;28;20040;-52
2023/09/09 10:03:00;;;;;;;3.38;1.60;;;21.00;55.80;;;;;;5006353;28;20098;-52
2023/09/09 10:05:29;;;;;;;2.10;1.50;;;21.00;55.10;;;;;;5007985;28;20068;-52
2023/09/09 10:08:23;;;;;;;1.75;1.65;;;20.90;55.50;;;;;;5012519;28;20104;-52
2023/09/09 10:10:56;;;;;;;2.42;1.60;;;20.90;55.80;;;;;;5006711;28;20036;-52
2023/09/09 10:13:40;;;;;;;2.20;1.60;;;20.80;55.60;;;;;;5012829;28;20104;-52
2023/09/09 10:16:06;;;;;;;3.65;1.27;;;20.80;55.10;;;;;;5011565;28;20030;-53
2023/09/09 10:18:35;;;;;;;2.55;1.70;;;20.80;55.00;;;;;;5008261;28;20026;-52
2023/09/09 10:21:01;;;;;;;3.22;1.50;;;20.80;55.40;;;;;;5005326;28;20038;-53
2023/09/09 10:23:29;;;;;;;3.28;1.65;;;20.80;55.20;;;;;;5010105;28;20026;-54
2023/09/09 10:25:55;;;;;;;2.00;1.50;;;20.80;55.00;;;;;;5011957;28;20026;-54
2023/09/09 10:28:21;;;;;;;2.22;1.77;;;20.70;54.30;;;;;;5008894;28;20086;-51
2023/09/09 10:30:50;;;;;;;2.00;1.70;;;20.70;54.20;;;;;;5010853;28;20030;-53
2023/09/09 10:33:18;;;;;;;2.90;1.60;;;20.70;54.50;;;;;;5008627;28;20044;-54
2023/09/09 10:35:47;;;;;;;3.80;1.70;;;20.70;54.40;;;;;;5006272;28;20026;-54
2023/09/09 10:38:14;;;;;;;2.75;1.35;;;20.70;54.30;;;;;;5008607;28;20057;-53
2023/09/09 10:40:40;;;;;;;1.95;1.65;;;20.60;54.80;;;;;;5010139;28;20053;-53
2023/09/09 10:43:06;;;;;;;3.58;1.73;;;20.60;55.60;;;;;;5013665;28;20026;-52
2023/09/09 10:45:39;;;;;;;2.47;1.50;;;20.60;55.70;;;;;;5012180;28;20084;-53
2023/09/09 10:48:07;;;;;;;3.30;1.80;;;20.60;55.30;;;;;;5012589;28;20076;-53
2023/09/09 10:50:53;;;;;;;3.30;1.77;;;20.60;55.10;;;;;;5012758;28;20351;-53
2023/09/09 10:53:29;;;;;;;3.83;2.00;;;20.70;55.80;;;;;;5011758;28;20038;-52
2023/09/09 10:56:00;;;;;;;2.08;1.88;;;20.60;55.80;;;;;;5009617;28;21500;-52
2023/09/09 10:58:33;;;;;;;2.28;1.58;;;20.60;54.90;;;;;;5005725;28;20125;-53
2023/09/09 11:01:02;;;;;;;4.47;1.67;;;20.60;54.80;;;;;;5008021;28;20557;-50
2023/09/09 11:03:36;;;;;;;1.77;1.50;;;20.60;54.10;;;;;;5011889;28;20101;-53
2023/09/09 11:06:07;;;;;;;2.03;1.85;;;20.60;54.30;;;;;;5012086;28;20037;-53
2023/09/09 11:08:42;;;;;;;2.42;1.60;;;20.60;54.50;;;;;;5011791;28;20034;-53
2023/09/09 11:11:15;;;;;;;1.58;1.48;;;20.60;54.70;;;;;;5011877;28;20385;-53
2023/09/09 11:13:44;;;;;;;1.85;1.45;;;20.60;54.20;;;;;;5011671;28;20084;-53
2023/09/09 11:16:30;;;;;;;1.40;1.30;;;20.50;53.70;;;;;;5008851;28;20045;-50
2023/09/09 11:19:18;;;;;;;2.08;1.60;;;20.60;54.30;;;;;;5013445;28;20030;-51
2023/09/09 11:21:46;;;;;;;3.15;1.48;;;20.50;53.90;;;;;;5013705;28;20030;-52
2023/09/09 11:24:12;;;;;;;3.25;1.58;;;20.60;54.20;;;;;;5014412;28;20038;-49
2023/09/09 11:26:39;;;;;;;1.38;1.20;;;20.60;54.60;;;;;;5014225;28;20496;-52
2023/09/09 11:29:05;;;;;;;1.83;1.40;;;20.60;54.30;;;;;;5014014;28;20498;-51
2023/09/09 11:31:31;;;;;;;2.20;1.48;;;20.60;54.50;;;;;;5013843;28;20029;-52
2023/09/09 11:33:58;;;;;;;2.15;1.38;;;20.50;54.10;;;;;;5013815;28;20064;-52
2023/09/09 11:36:24;;;;;;;2.30;1.60;;;20.50;54.00;;;;;;5014609;28;20026;-52
2023/09/09 11:38:50;;;;;;;1.48;1.38;;;20.60;54.10;;;;;;5014280;28;20034;-53
2023/09/09 11:41:20;;;;;;;1.35;0.93;;;20.50;53.60;;;;;;5014374;28;20034;-52
2023/09/09 11:44:00;;;;;;;1.80;1.67;;;20.50;53.60;;;;;;5014529;28;20382;-52
2023/09/09 11:46:27;;;;;;;2.38;1.77;;;20.50;53.70;;;;;;5014180;28;20130;-52
2023/09/09 11:48:52;;;;;;;1.80;1.67;;;20.50;54.00;;;;;;5014576;28;20026;-50
2023/09/09 11:51:20;;;;;;;2.53;1.42;;;20.50;53.80;;;;;;5032684;28;20049;-52
2023/09/09 11:53:46;;;;;;;3.33;1.65;;;20.60;54.10;;;;;;5034178;28;20127;-51
2023/09/09 11:56:15;;;;;;;2.55;1.73;;;20.60;54.00;;;;;;5034217;28;20100;-52
2023/09/09 11:58:41;;;;;;;1.52;1.40;;;20.50;53.60;;;;;;5034610;28;20026;-53
2023/09/09 12:01:08;;;;;;;2.28;1.52;;;20.50;53.00;;;;;;5033802;28;20045;-50
2023/09/09 12:03:34;;;;;;;2.05;1.35;;;20.50;52.80;;;;;;5033984;28;20029;-53
2023/09/09 12:06:02;;;;;;;2.17;1.42;;;20.50;52.50;;;;;;5033693;28;20484;-53
2023/09/09 12:08:28;;;;;;;2.83;1.60;;;20.50;52.80;;;;;;5033547;28;20493;-53
2023/09/09 12:10:55;;;;;;;2.70;1.30;;;20.50;52.90;;;;;;5034138;28;20033;-51
2023/09/09 12:13:21;;;;;;;1.35;1.23;;;20.50;52.50;;;;;;5033714;28;20109;-52
2023/09/09 12:15:47;;;;;;;1.73;1.20;;;20.50;52.20;;;;;;5034322;28;20164;-50
2023/09/09 12:18:14;;;;;;;3.42;1.60;;;20.50;52.20;;;;;;5034214;28;20477;-51
2023/09/09 12:20:59;;;;;;;1.80;1.50;;;20.60;52.70;;;;;;5033843;28;20025;-52
2023/09/09 12:23:30;;;;;;;1.77;1.30;;;20.50;52.80;;;;;;5034629;28;20033;-52
2023/09/09 12:25:56;;;;;;;2.58;1.65;;;20.50;52.20;;;;;;5033379;28;20448;-51
2023/09/09 12:28:22;;;;;;;1.90;1.42;;;20.50;51.80;;;;;;5033802;28;20128;-51
2023/09/09 12:30:49;;;;;;;2.67;1.60;;;20.50;51.10;;;;;;5033599;28;20030;-52
2023/09/09 12:33:17;;;;;;;3.00;1.90;;;20.50;51.30;;;;;;5034496;28;20490;-53
2023/09/09 12:35:49;;;;;;;1.95;1.45;;;20.50;51.50;;;;;;5033728;28;20036;-52
2023/09/09 12:38:16;;;;;;;2.95;1.30;;;20.50;52.70;;;;;;5033277;28;20040;-53
2023/09/09 12:40:50;;;;;;;1.83;1.40;;;20.50;51.80;;;;;;5033777;28;20025;-52
2023/09/09 12:43:26;;;;;;;2.38;1.30;;;20.50;51.90;;;;;;5033594;28;20033;-49
2023/09/09 12:46:08;;;;;;;2.35;1.50;;;20.50;51.80;;;;;;5037039;28;20029;-49